TimeEDT,TemperatureF,Dew PointF,Humidity,Sea Level PressureIn,VisibilityMPH,Wind Direction,Wind SpeedMPH,Gust SpeedMPH,PrecipitationIn,Events,Conditions,WindDirDegrees,DateUTC
12:15 AM,49.3,40.1,71,29.94,10.0,NW,13.8,19.6,N/A,,Overcast,320,2013-09-22 04:15:00
12:34 AM,49.3,38.8,67,29.94,10.0,NNW,12.7,19.6,N/A,,Mostly Cloudy,330,2013-09-22 04:34:00
12:55 AM,49.5,40.3,71,29.95,10.0,NNW,13.8,20.7,N/A,,Overcast,340,2013-09-22 04:55:00
1:15 AM,48.4,40.6,75,29.95,10.0,North,9.2,18.4,N/A,Rain,Light Rain,350,2013-09-22 05:15:00
1:34 AM,49.1,39.7,70,29.95,10.0,North,10.4,18.4,N/A,,Overcast,350,2013-09-22 05:34:00
1:55 AM,49.1,39.0,68,29.96,10.0,NNW,13.8,21.9,N/A,,Mostly Cloudy,340,2013-09-22 05:55:00
2:15 AM,49.1,38.3,66,29.96,10.0,North,12.7,17.3,N/A,,Mostly Cloudy,350,2013-09-22 06:15:00
2:34 AM,49.1,37.8,65,29.96,10.0,North,13.8,17.3,N/A,,Mostly Cloudy,350,2013-09-22 06:34:00
2:55 AM,49.1,36.5,62,29.97,10.0,North,12.7,17.3,N/A,,Mostly Cloudy,350,2013-09-22 06:55:00
3:14 AM,48.7,37.8,66,29.97,10.0,North,11.5,18.4,N/A,,Mostly Cloudy,350,2013-09-22 07:14:00
3:34 AM,49.1,38.3,66,29.97,10.0,NNW,9.2,-,N/A,,Overcast,340,2013-09-22 07:34:00
3:55 AM,48.7,39.6,71,29.98,10.0,North,11.5,17.3,N/A,,Overcast,10,2013-09-22 07:55:00
4:14 AM,48.7,37.6,65,29.98,10.0,North,9.2,-,N/A,,Overcast,360,2013-09-22 08:14:00
4:34 AM,48.6,39.0,70,29.98,10.0,North,10.4,16.1,N/A,,Overcast,10,2013-09-22 08:34:00
4:54 AM,48.2,39.0,71,29.99,10.0,North,10.4,16.1,N/A,,Overcast,360,2013-09-22 08:54:00
5:14 AM,48.2,38.8,70,29.99,10.0,North,12.7,18.4,N/A,,Overcast,10,2013-09-22 09:14:00
5:35 AM,48.2,38.7,70,30.01,10.0,North,10.4,16.1,N/A,,Overcast,10,2013-09-22 09:35:00
5:54 AM,48.2,37.4,66,30.01,10.0,North,10.4,-,N/A,,Overcast,10,2013-09-22 09:54:00
6:14 AM,48.0,37.8,68,30.01,10.0,North,9.2,-,N/A,,Overcast,350,2013-09-22 10:14:00
6:35 AM,47.7,37.8,69,30.02,10.0,NNE,6.9,18.4,N/A,,Overcast,20,2013-09-22 10:35:00
6:54 AM,47.8,37.9,69,30.02,10.0,NNE,12.7,-,N/A,,Overcast,20,2013-09-22 10:54:00
7:15 AM,48.0,37.6,67,30.03,10.0,North,11.5,17.3,N/A,,Overcast,360,2013-09-22 11:15:00
7:35 AM,47.7,36.9,66,30.04,10.0,North,12.7,18.4,N/A,,Overcast,360,2013-09-22 11:35:00
7:54 AM,47.8,37.8,68,30.04,10.0,North,9.2,-,N/A,,Overcast,350,2013-09-22 11:54:00
8:15 AM,47.7,37.8,69,30.05,10.0,North,9.2,-,N/A,,Overcast,350,2013-09-22 12:15:00
8:34 AM,47.7,38.5,70,30.05,10.0,North,9.2,16.1,N/A,,Overcast,10,2013-09-22 12:34:00
8:55 AM,47.7,38.7,71,30.05,10.0,North,9.2,-,N/A,,Overcast,10,2013-09-22 12:55:00
9:15 AM,48.2,38.5,69,30.06,10.0,North,8.1,-,N/A,,Overcast,10,2013-09-22 13:15:00
9:34 AM,48.2,38.5,69,30.07,10.0,North,9.2,-,N/A,,Overcast,10,2013-09-22 13:34:00
9:55 AM,48.0,38.7,70,30.08,10.0,North,10.4,-,N/A,,Overcast,360,2013-09-22 13:55:00
10:15 AM,47.7,39.6,73,30.08,10.0,ENE,5.8,-,N/A,,Overcast,60,2013-09-22 14:15:00
10:34 AM,48.2,38.5,69,30.09,10.0,NNE,9.2,-,N/A,,Overcast,30,2013-09-22 14:34:00
10:55 AM,48.7,37.9,66,30.10,10.0,NE,8.1,-,N/A,,Overcast,50,2013-09-22 14:55:00
11:15 AM,48.4,39.2,71,30.10,10.0,NNE,6.9,-,N/A,,Overcast,30,2013-09-22 15:15:00
11:34 AM,48.6,39.6,71,30.10,10.0,North,9.2,-,N/A,,Overcast,360,2013-09-22 15:34:00
11:55 AM,49.5,38.7,66,30.10,10.0,NNE,6.9,-,N/A,,Overcast,20,2013-09-22 15:55:00
12:15 PM,50.4,40.1,68,30.10,10.0,NNW,8.1,-,N/A,,Overcast,340,2013-09-22 16:15:00
12:34 PM,50.0,39.9,68,30.11,10.0,NNE,6.9,-,N/A,,Overcast,20,2013-09-22 16:34:00
12:55 PM,49.8,40.6,71,30.10,10.0,NNE,8.1,-,N/A,,Overcast,30,2013-09-22 16:55:00
1:14 PM,51.8,40.3,65,30.10,10.0,NE,6.9,-,N/A,,Overcast,50,2013-09-22 17:14:00
1:34 PM,50.4,39.0,65,30.10,10.0,NNE,8.1,-,N/A,,Mostly Cloudy,20,2013-09-22 17:34:00
1:54 PM,51.1,39.0,63,30.10,10.0,North,5.8,10.4,N/A,,Scattered Clouds,360,2013-09-22 17:54:00
2:14 PM,53.2,40.1,61,30.10,10.0,North,5.8,-,N/A,,Scattered Clouds,10,2013-09-22 18:14:00
2:35 PM,52.7,40.8,64,30.10,10.0,NNW,8.1,-,N/A,,Mostly Cloudy,340,2013-09-22 18:35:00
2:54 PM,51.1,41.4,69,30.09,10.0,North,9.2,-,N/A,,Overcast,350,2013-09-22 18:54:00
3:15 PM,52.7,42.4,68,30.09,10.0,NNW,9.2,-,N/A,,Mostly Cloudy,330,2013-09-22 19:15:00
3:35 PM,51.8,40.8,66,30.09,10.0,North,8.1,-,N/A,,Overcast,10,2013-09-22 19:35:00
3:54 PM,52.5,41.5,66,30.09,10.0,NNW,9.2,-,N/A,,Mostly Cloudy,340,2013-09-22 19:54:00
4:15 PM,52.5,41.4,66,30.09,10.0,North,4.6,-,N/A,,Scattered Clouds,350,2013-09-22 20:15:00
4:35 PM,53.1,41.0,64,30.09,10.0,North,4.6,-,N/A,,Mostly Cloudy,10,2013-09-22 20:35:00
4:54 PM,51.4,40.6,67,30.09,10.0,North,4.6,-,N/A,,Mostly Cloudy,350,2013-09-22 20:54:00
5:15 PM,52.7,42.4,68,30.09,10.0,North,6.9,-,N/A,,Overcast,350,2013-09-22 21:15:00
5:35 PM,52.2,42.1,69,30.09,10.0,NNW,6.9,-,N/A,,Overcast,340,2013-09-22 21:35:00
5:54 PM,51.6,41.4,68,30.10,10.0,North,5.8,-,N/A,,Overcast,360,2013-09-22 21:54:00
6:15 PM,51.4,41.0,68,30.10,10.0,NNW,5.8,-,N/A,,Overcast,330,2013-09-22 22:15:00
6:35 PM,51.4,41.4,68,30.10,10.0,NNE,5.8,-,N/A,,Overcast,20,2013-09-22 22:35:00
6:54 PM,51.1,40.1,66,30.10,10.0,NNE,5.8,-,N/A,,Overcast,30,2013-09-22 22:54:00
7:15 PM,51.1,39.2,64,30.10,10.0,North,3.5,-,N/A,,Overcast,360,2013-09-22 23:15:00
7:34 PM,50.9,39.7,66,30.09,10.0,NE,3.5,-,N/A,,Overcast,50,2013-09-22 23:34:00
7:54 PM,50.9,39.6,65,30.10,10.0,NE,4.6,-,N/A,,Overcast,40,2013-09-22 23:54:00
8:14 PM,50.9,40.1,67,30.10,10.0,ENE,4.6,-,N/A,,Overcast,60,2013-09-23 00:14:00
8:34 PM,50.9,39.2,64,30.11,10.0,ENE,3.5,-,N/A,,Overcast,60,2013-09-23 00:34:00
8:55 PM,50.9,39.2,64,30.12,10.0,Calm,Calm,-,N/A,,Overcast,0,2013-09-23 00:55:00
9:14 PM,50.9,39.2,64,30.12,10.0,Calm,Calm,-,N/A,,Overcast,0,2013-09-23 01:14:00
9:35 PM,50.0,40.6,70,30.13,10.0,Calm,Calm,-,N/A,,Overcast,0,2013-09-23 01:35:00
9:54 PM,50.2,40.5,69,30.13,10.0,ENE,3.5,-,N/A,,Overcast,70,2013-09-23 01:54:00
10:14 PM,50.0,40.8,71,30.13,10.0,East,3.5,-,N/A,,Overcast,100,2013-09-23 02:14:00
10:35 PM,51.1,39.0,63,30.13,10.0,East,4.6,-,N/A,,Overcast,100,2013-09-23 02:35:00
10:54 PM,51.1,39.0,63,30.14,10.0,SE,3.5,-,N/A,,Overcast,140,2013-09-23 02:54:00
11:15 PM,49.1,40.3,72,30.14,10.0,Calm,Calm,-,N/A,,Overcast,0,2013-09-23 03:15:00
11:35 PM,47.3,40.3,77,30.14,10.0,SSE,3.5,-,N/A,,Scattered Clouds,160,2013-09-23 03:35:00
11:54 PM,45.5,40.5,83,30.14,10.0,Calm,Calm,-,N/A,,Clear,0,2013-09-23 03:54:00